sensor_id;sensor_type;location;lat;lon;timestamp;pressure;altitude;pressure_sealevel;temperature;humidity
71915;BME280;60387;49.994;14.660;2023-03-01T00:00:24;98826.41;;;1.68;48.03
71915;BME280;60387;49.994;14.660;2023-03-01T00:02:57;98819.25;;;1.68;48.41
71915;BME280;60387;49.994;14.660;2023-03-01T00:05:31;98810.19;;;1.69;48.07
71915;BME280;60387;49.994;14.660;2023-03-01T00:08:04;98816.56;;;1.68;47.84
71915;BME280;60387;49.994;14.660;2023-03-01T00:10:37;98817.81;;;1.66;47.84
71915;BME280;60387;49.994;14.660;2023-03-01T00:13:11;98819.91;;;1.64;47.59
71915;BME280;60387;49.994;14.660;2023-03-01T00:15:44;98821.13;;;1.61;48.23
71915;BME280;60387;49.994;14.660;2023-03-01T00:18:17;98824.84;;;1.60;47.76
71915;BME280;60387;49.994;14.660;2023-03-01T00:20:54;98824.47;;;1.57;48.16
71915;BME280;60387;49.994;14.660;2023-03-01T00:23:28;98829.41;;;1.53;47.72
71915;BME280;60387;49.994;14.660;2023-03-01T00:26:02;98825.56;;;1.49;47.73
71915;BME280;60387;49.994;14.660;2023-03-01T00:28:38;98821.06;;;1.43;47.87
71915;BME280;60387;49.994;14.660;2023-03-01T00:31:17;98808.78;;;1.36;47.90
71915;BME280;60387;49.994;14.660;2023-03-01T00:33:55;98812.50;;;1.35;47.82
71915;BME280;60387;49.994;14.660;2023-03-01T00:36:34;98812.28;;;1.36;48.85
71915;BME280;60387;49.994;14.660;2023-03-01T00:39:13;98807.56;;;1.38;48.71
71915;BME280;60387;49.994;14.660;2023-03-01T00:41:47;98796.28;;;1.36;49.04
71915;BME280;60387;49.994;14.660;2023-03-01T00:44:20;98802.66;;;1.35;48.62
71915;BME280;60387;49.994;14.660;2023-03-01T00:46:53;98784.84;;;1.29;48.59
71915;BME280;60387;49.994;14.660;2023-03-01T00:49:27;98804.94;;;1.32;48.18
71915;BME280;60387;49.994;14.660;2023-03-01T00:52:00;98801.44;;;1.31;48.13
71915;BME280;60387;49.994;14.660;2023-03-01T00:54:33;98801.88;;;1.28;47.87
71915;BME280;60387;49.994;14.660;2023-03-01T00:57:06;98790.59;;;1.26;48.00
71915;BME280;60387;49.994;14.660;2023-03-01T00:59:40;98783.63;;;1.25;47.98
71915;BME280;60387;49.994;14.660;2023-03-01T01:02:13;98784.88;;;1.23;48.78
71915;BME280;60387;49.994;14.660;2023-03-01T01:04:47;98793.28;;;1.26;48.76
71915;BME280;60387;49.994;14.660;2023-03-01T01:07:20;98786.72;;;1.22;49.30
71915;BME280;60387;49.994;14.660;2023-03-01T01:09:53;98781.00;;;1.19;48.67
71915;BME280;60387;49.994;14.660;2023-03-01T01:12:27;98793.06;;;1.28;49.85
71915;BME280;60387;49.994;14.660;2023-03-01T01:15:00;98775.00;;;1.23;49.84
71915;BME280;60387;49.994;14.660;2023-03-01T01:17:33;98765.81;;;1.19;49.16
71915;BME280;60387;49.994;14.660;2023-03-01T01:20:07;98770.72;;;1.22;49.12
71915;BME280;60387;49.994;14.660;2023-03-01T01:22:41;98768.94;;;1.16;48.90
71915;BME280;60387;49.994;14.660;2023-03-01T01:25:14;98759.88;;;1.17;49.22
71915;BME280;60387;49.994;14.660;2023-03-01T01:27:47;98761.53;;;1.18;49.01
71915;BME280;60387;49.994;14.660;2023-03-01T01:30:20;98755.97;;;1.20;49.38
71915;BME280;60387;49.994;14.660;2023-03-01T01:32:54;98763.16;;;1.19;49.37
71915;BME280;60387;49.994;14.660;2023-03-01T01:35:27;98760.09;;;1.16;49.39
71915;BME280;60387;49.994;14.660;2023-03-01T01:38:00;98773.81;;;1.19;49.09
71915;BME280;60387;49.994;14.660;2023-03-01T01:40:34;98762.31;;;1.19;49.02
71915;BME280;60387;49.994;14.660;2023-03-01T01:43:16;98750.84;;;1.18;49.27
71915;BME280;60387;49.994;14.660;2023-03-01T01:45:54;98749.59;;;1.21;50.06
71915;BME280;60387;49.994;14.660;2023-03-01T01:48:43;98745.50;;;1.18;50.75
71915;BME280;60387;49.994;14.660;2023-03-01T01:51:25;98755.97;;;1.20;50.25
71915;BME280;60387;49.994;14.660;2023-03-01T01:54:01;98739.13;;;1.19;50.55
71915;BME280;60387;49.994;14.660;2023-03-01T01:56:37;98744.91;;;1.16;51.85
71915;BME280;60387;49.994;14.660;2023-03-01T01:59:13;98748.78;;;1.20;50.03
71915;BME280;60387;49.994;14.660;2023-03-01T02:01:47;98740.78;;;1.20;49.74
71915;BME280;60387;49.994;14.660;2023-03-01T02:04:21;98743.81;;;1.24;49.41
71915;BME280;60387;49.994;14.660;2023-03-01T02:07:20;98740.56;;;1.22;49.12
71915;BME280;60387;49.994;14.660;2023-03-01T02:09:53;98745.91;;;1.22;49.03
71915;BME280;60387;49.994;14.660;2023-03-01T02:12:26;98746.69;;;1.22;49.46
71915;BME280;60387;49.994;14.660;2023-03-01T02:14:59;98745.50;;;1.18;49.04
71915;BME280;60387;49.994;14.660;2023-03-01T02:17:33;98734.91;;;1.12;49.54
71915;BME280;60387;49.994;14.660;2023-03-01T02:23:02;98730.63;;;1.04;49.42
71915;BME280;60387;49.994;14.660;2023-03-01T02:25:44;98741.13;;;0.99;49.33
71915;BME280;60387;49.994;14.660;2023-03-01T02:28:29;98736.44;;;0.95;48.58
71915;BME280;60387;49.994;14.660;2023-03-01T02:31:07;98735.69;;;0.88;49.03
71915;BME280;60387;49.994;14.660;2023-03-01T02:33:41;98741.06;;;0.81;48.99
71915;BME280;60387;49.994;14.660;2023-03-01T02:36:21;98740.28;;;0.74;49.64
71915;BME280;60387;49.994;14.660;2023-03-01T02:38:58;98745.41;;;0.69;50.19
71915;BME280;60387;49.994;14.660;2023-03-01T02:41:35;98741.97;;;0.62;50.38
71915;BME280;60387;49.994;14.660;2023-03-01T02:44:09;98735.88;;;0.55;49.47
71915;BME280;60387;49.994;14.660;2023-03-01T02:46:55;98729.53;;;0.50;49.81
71915;BME280;60387;49.994;14.660;2023-03-01T02:49:31;98732.19;;;0.50;49.81
71915;BME280;60387;49.994;14.660;2023-03-01T02:52:11;98723.78;;;0.46;49.99
71915;BME280;60387;49.994;14.660;2023-03-01T02:57:43;98720.13;;;0.41;50.23
71915;BME280;60387;49.994;14.660;2023-03-01T03:00:21;98726.09;;;0.36;50.39
71915;BME280;60387;49.994;14.660;2023-03-01T03:02:56;98723.03;;;0.33;50.37
71915;BME280;60387;49.994;14.660;2023-03-01T03:05:32;98712.00;;;0.29;50.35
71915;BME280;60387;49.994;14.660;2023-03-01T03:08:06;98717.31;;;0.29;50.85
71915;BME280;60387;49.994;14.660;2023-03-01T03:10:40;98710.78;;;0.25;50.53
71915;BME280;60387;49.994;14.660;2023-03-01T03:13:14;98719.81;;;0.24;50.50
71915;BME280;60387;49.994;14.660;2023-03-01T03:15:47;98715.28;;;0.25;50.04
71915;BME280;60387;49.994;14.660;2023-03-01T03:18:22;98715.94;;;0.20;49.81
71915;BME280;60387;49.994;14.660;2023-03-01T03:20:56;98725.56;;;0.21;49.87
71915;BME280;60387;49.994;14.660;2023-03-01T03:23:29;98728.03;;;0.16;49.93
71915;BME280;60387;49.994;14.660;2023-03-01T03:26:03;98714.13;;;0.14;49.94
71915;BME280;60387;49.994;14.660;2023-03-01T03:28:37;98709.63;;;0.08;50.32
71915;BME280;60387;49.994;14.660;2023-03-01T03:31:10;98706.56;;;0.05;49.88
71915;BME280;60387;49.994;14.660;2023-03-01T03:33:43;98717.66;;;0.02;50.28
71915;BME280;60387;49.994;14.660;2023-03-01T03:36:19;98714.41;;;0.00;50.32
71915;BME280;60387;49.994;14.660;2023-03-01T03:38:53;98714.19;;;-0.05;50.30
71915;BME280;60387;49.994;14.660;2023-03-01T03:41:26;98715.63;;;-0.03;49.99
71915;BME280;60387;49.994;14.660;2023-03-01T03:43:59;98714.38;;;-0.07;50.50
71915;BME280;60387;49.994;14.660;2023-03-01T03:46:33;98706.84;;;-0.09;50.81
71915;BME280;60387;49.994;14.660;2023-03-01T03:49:06;98696.22;;;-0.16;50.39
71915;BME280;60387;49.994;14.660;2023-03-01T03:51:39;98695.38;;;-0.16;50.57
71915;BME280;60387;49.994;14.660;2023-03-01T03:54:12;98690.06;;;-0.16;50.13
71915;BME280;60387;49.994;14.660;2023-03-01T03:56:46;98689.63;;;-0.13;51.16
71915;BME280;60387;49.994;14.660;2023-03-01T03:59:19;98693.31;;;-0.08;52.69
71915;BME280;60387;49.994;14.660;2023-03-01T04:01:52;98690.44;;;0.00;51.57
71915;BME280;60387;49.994;14.660;2023-03-01T04:04:25;98700.63;;;0.09;53.39
71915;BME280;60387;49.994;14.660;2023-03-01T04:06:59;98690.13;;;0.21;52.64
71915;BME280;60387;49.994;14.660;2023-03-01T04:09:32;98688.63;;;0.31;53.03
71915;BME280;60387;49.994;14.660;2023-03-01T04:12:05;98693.09;;;0.37;52.93
71915;BME280;60387;49.994;14.660;2023-03-01T04:14:39;98691.25;;;0.38;53.04
71915;BME280;60387;49.994;14.660;2023-03-01T04:17:12;98697.59;;;0.43;52.45
71915;BME280;60387;49.994;14.660;2023-03-01T04:19:45;98699.16;;;0.51;52.57
71915;BME280;60387;49.994;14.660;2023-03-01T04:22:19;98702.22;;;0.54;51.88
71915;BME280;60387;49.994;14.660;2023-03-01T04:24:52;98693.81;;;0.57;51.42
71915;BME280;60387;49.994;14.660;2023-03-01T04:27:25;98693.00;;;0.57;51.82
71915;BME280;60387;49.994;14.660;2023-03-01T04:29:59;98695.06;;;0.55;51.18
71915;BME280;60387;49.994;14.660;2023-03-01T04:32:32;98691.81;;;0.53;51.42
71915;BME280;60387;49.994;14.660;2023-03-01T04:35:06;98690.97;;;0.52;50.68
71915;BME280;60387;49.994;14.660;2023-03-01T04:37:39;98697.53;;;0.56;50.51
71915;BME280;60387;49.994;14.660;2023-03-01T04:40:13;98704.28;;;0.52;50.65
71915;BME280;60387;49.994;14.660;2023-03-01T04:42:46;98704.13;;;0.47;50.68
71915;BME280;60387;49.994;14.660;2023-03-01T04:45:19;98707.25;;;0.38;50.67
71915;BME280;60387;49.994;14.660;2023-03-01T04:47:53;98709.97;;;0.31;50.88
71915;BME280;60387;49.994;14.660;2023-03-01T04:50:26;98700.97;;;0.19;50.50
71915;BME280;60387;49.994;14.660;2023-03-01T04:53:00;98699.78;;;0.15;50.58
71915;BME280;60387;49.994;14.660;2023-03-01T04:55:33;98705.94;;;0.09;50.29
71915;BME280;60387;49.994;14.660;2023-03-01T04:58:06;98701.44;;;0.03;50.71
71915;BME280;60387;49.994;14.660;2023-03-01T05:00:40;98706.00;;;-0.03;50.91
71915;BME280;60387;49.994;14.660;2023-03-01T05:03:13;98715.41;;;-0.08;50.59
71915;BME280;60387;49.994;14.660;2023-03-01T05:05:50;98710.13;;;-0.14;50.92
71915;BME280;60387;49.994;14.660;2023-03-01T05:08:24;98705.44;;;-0.18;50.85
71915;BME280;60387;49.994;14.660;2023-03-01T05:10:57;98706.84;;;-0.22;51.12
71915;BME280;60387;49.994;14.660;2023-03-01T05:13:31;98703.19;;;-0.28;51.70
71915;BME280;60387;49.994;14.660;2023-03-01T05:16:05;98700.13;;;-0.31;51.58
71915;BME280;60387;49.994;14.660;2023-03-01T05:18:40;98692.56;;;-0.34;51.29
71915;BME280;60387;49.994;14.660;2023-03-01T05:21:14;98691.56;;;-0.40;51.58
71915;BME280;60387;49.994;14.660;2023-03-01T05:23:47;98691.75;;;-0.41;52.39
71915;BME280;60387;49.994;14.660;2023-03-01T05:26:21;98692.19;;;-0.44;52.05
71915;BME280;60387;49.994;14.660;2023-03-01T05:28:55;98698.75;;;-0.47;52.02
71915;BME280;60387;49.994;14.660;2023-03-01T05:31:28;98687.69;;;-0.50;51.52
71915;BME280;60387;49.994;14.660;2023-03-01T05:34:02;98694.63;;;-0.49;51.88
71915;BME280;60387;49.994;14.660;2023-03-01T05:36:35;98690.16;;;-0.49;50.99
71915;BME280;60387;49.994;14.660;2023-03-01T05:39:08;98690.94;;;-0.48;51.80
71915;BME280;60387;49.994;14.660;2023-03-01T05:41:41;98694.44;;;-0.48;52.55
71915;BME280;60387;49.994;14.660;2023-03-01T05:44:15;98678.47;;;-0.48;52.40
71915;BME280;60387;49.994;14.660;2023-03-01T05:46:48;98680.31;;;-0.48;52.54
71915;BME280;60387;49.994;14.660;2023-03-01T05:49:22;98678.69;;;-0.49;52.26
71915;BME280;60387;49.994;14.660;2023-03-01T05:51:55;98678.28;;;-0.53;52.01
71915;BME280;60387;49.994;14.660;2023-03-01T05:54:28;98685.84;;;-0.50;51.84
71915;BME280;60387;49.994;14.660;2023-03-01T05:57:02;98693.84;;;-0.50;52.27
71915;BME280;60387;49.994;14.660;2023-03-01T05:59:35;98672.16;;;-0.53;52.00
71915;BME280;60387;49.994;14.660;2023-03-01T06:02:08;98675.44;;;-0.58;51.46
71915;BME280;60387;49.994;14.660;2023-03-01T06:04:42;98687.47;;;-0.55;51.44
71915;BME280;60387;49.994;14.660;2023-03-01T06:07:15;98672.75;;;-0.51;51.49
71915;BME280;60387;49.994;14.660;2023-03-01T06:09:48;98678.88;;;-0.44;51.34
71915;BME280;60387;49.994;14.660;2023-03-01T06:12:21;98679.88;;;-0.39;51.82
71915;BME280;60387;49.994;14.660;2023-03-01T06:14:55;98689.91;;;-0.34;51.61
71915;BME280;60387;49.994;14.660;2023-03-01T06:17:33;98691.91;;;-0.23;51.03
71915;BME280;60387;49.994;14.660;2023-03-01T06:20:26;98688.00;;;-0.14;51.26
71915;BME280;60387;49.994;14.660;2023-03-01T06:23:00;98686.13;;;-0.08;51.21
71915;BME280;60387;49.994;14.660;2023-03-01T06:25:33;98697.78;;;0.04;52.39
71915;BME280;60387;49.994;14.660;2023-03-01T06:28:07;98697.31;;;0.14;52.33
71915;BME280;60387;49.994;14.660;2023-03-01T06:30:40;98697.28;;;0.27;52.30
71915;BME280;60387;49.994;14.660;2023-03-01T06:33:13;98698.81;;;0.47;51.77
71915;BME280;60387;49.994;14.660;2023-03-01T06:35:47;98681.47;;;0.63;51.88
71915;BME280;60387;49.994;14.660;2023-03-01T06:38:20;98689.91;;;0.91;52.33
71915;BME280;60387;49.994;14.660;2023-03-01T06:40:54;98685.59;;;1.14;52.13
71915;BME280;60387;49.994;14.660;2023-03-01T06:43:27;98676.00;;;1.31;51.42
71915;BME280;60387;49.994;14.660;2023-03-01T06:46:04;98678.59;;;1.62;51.74
71915;BME280;60387;49.994;14.660;2023-03-01T06:48:37;98673.41;;;1.85;51.50
71915;BME280;60387;49.994;14.660;2023-03-01T06:51:10;98680.09;;;2.12;51.19
71915;BME280;60387;49.994;14.660;2023-03-01T06:53:45;98689.25;;;2.34;51.32
71915;BME280;60387;49.994;14.660;2023-03-01T06:56:19;98679.25;;;2.59;51.53
71915;BME280;60387;49.994;14.660;2023-03-01T06:58:52;98685.50;;;2.83;50.99
71915;BME280;60387;49.994;14.660;2023-03-01T07:01:25;98680.44;;;3.04;51.12
71915;BME280;60387;49.994;14.660;2023-03-01T07:03:59;98688.72;;;3.25;50.82
71915;BME280;60387;49.994;14.660;2023-03-01T07:06:32;98685.47;;;3.46;50.79
71915;BME280;60387;49.994;14.660;2023-03-01T07:09:06;98690.72;;;3.64;50.73
71915;BME280;60387;49.994;14.660;2023-03-01T07:11:39;98683.59;;;3.81;50.32
71915;BME280;60387;49.994;14.660;2023-03-01T07:14:12;98689.06;;;3.98;50.33
71915;BME280;60387;49.994;14.660;2023-03-01T07:16:46;98695.34;;;4.15;50.54
71915;BME280;60387;49.994;14.660;2023-03-01T07:19:20;98701.44;;;4.38;50.14
71915;BME280;60387;49.994;14.660;2023-03-01T07:21:53;98689.47;;;4.57;50.08
71915;BME280;60387;49.994;14.660;2023-03-01T07:24:27;98701.97;;;4.80;49.85
71915;BME280;60387;49.994;14.660;2023-03-01T07:27:00;98711.88;;;4.91;48.97
71915;BME280;60387;49.994;14.660;2023-03-01T07:29:33;98708.47;;;4.95;48.25
71915;BME280;60387;49.994;14.660;2023-03-01T07:32:07;98695.09;;;5.00;48.79
71915;BME280;60387;49.994;14.660;2023-03-01T07:34:40;98705.88;;;5.17;48.96
71915;BME280;60387;49.994;14.660;2023-03-01T07:37:13;98699.13;;;5.31;48.48
71915;BME280;60387;49.994;14.660;2023-03-01T07:39:47;98706.88;;;5.44;47.81
71915;BME280;60387;49.994;14.660;2023-03-01T07:42:20;98696.34;;;5.42;47.12
71915;BME280;60387;49.994;14.660;2023-03-01T07:44:53;98702.28;;;5.44;46.75
71915;BME280;60387;49.994;14.660;2023-03-01T07:47:26;98701.81;;;5.31;47.13
71915;BME280;60387;49.994;14.660;2023-03-01T07:50:00;98700.69;;;5.27;46.84
71915;BME280;60387;49.994;14.660;2023-03-01T07:52:33;98698.56;;;5.29;47.30
71915;BME280;60387;49.994;14.660;2023-03-01T07:55:07;98697.50;;;5.30;47.40
71915;BME280;60387;49.994;14.660;2023-03-01T07:57:40;98695.38;;;5.32;47.54
71915;BME280;60387;49.994;14.660;2023-03-01T08:00:13;98696.94;;;5.28;46.20
71915;BME280;60387;49.994;14.660;2023-03-01T08:02:47;98690.09;;;5.37;46.89
71915;BME280;60387;49.994;14.660;2023-03-01T08:05:20;98715.50;;;5.29;46.19
71915;BME280;60387;49.994;14.660;2023-03-01T08:07:53;98691.47;;;5.23;46.77
71915;BME280;60387;49.994;14.660;2023-03-01T08:10:27;98686.81;;;5.18;46.19
71915;BME280;60387;49.994;14.660;2023-03-01T08:13:00;98684.97;;;5.35;46.26
71915;BME280;60387;49.994;14.660;2023-03-01T08:15:33;98673.34;;;5.46;46.21
71915;BME280;60387;49.994;14.660;2023-03-01T08:18:07;98685.13;;;5.62;46.47
71915;BME280;60387;49.994;14.660;2023-03-01T08:20:40;98677.84;;;5.79;46.13
71915;BME280;60387;49.994;14.660;2023-03-01T08:23:13;98686.97;;;5.94;46.08
71915;BME280;60387;49.994;14.660;2023-03-01T08:25:46;98687.69;;;6.06;45.27
71915;BME280;60387;49.994;14.660;2023-03-01T08:28:20;98685.78;;;6.07;45.25
71915;BME280;60387;49.994;14.660;2023-03-01T08:30:53;98683.81;;;6.19;45.27
71915;BME280;60387;49.994;14.660;2023-03-01T08:33:26;98687.19;;;6.30;44.21
71915;BME280;60387;49.994;14.660;2023-03-01T08:36:04;98689.13;;;6.56;45.02
71915;BME280;60387;49.994;14.660;2023-03-01T08:38:38;98675.38;;;6.79;44.78
71915;BME280;60387;49.994;14.660;2023-03-01T08:41:11;98680.03;;;7.15;44.49
71915;BME280;60387;49.994;14.660;2023-03-01T08:43:45;98684.56;;;7.41;42.99
71915;BME280;60387;49.994;14.660;2023-03-01T08:46:18;98690.09;;;7.61;43.20
71915;BME280;60387;49.994;14.660;2023-03-01T08:48:52;98689.69;;;7.74;43.08
71915;BME280;60387;49.994;14.660;2023-03-01T08:51:26;98674.69;;;7.88;42.35
71915;BME280;60387;49.994;14.660;2023-03-01T08:53:59;98680.19;;;8.13;40.81
71915;BME280;60387;49.994;14.660;2023-03-01T08:56:33;98673.31;;;8.37;42.71
71915;BME280;60387;49.994;14.660;2023-03-01T08:59:06;98665.25;;;8.42;40.94
71915;BME280;60387;49.994;14.660;2023-03-01T09:01:45;98658.75;;;8.38;39.76
71915;BME280;60387;49.994;14.660;2023-03-01T09:04:18;98672.56;;;8.52;40.34
71915;BME280;60387;49.994;14.660;2023-03-01T09:06:51;98668.75;;;8.43;39.42
71915;BME280;60387;49.994;14.660;2023-03-01T09:09:24;98660.66;;;8.43;40.18
71915;BME280;60387;49.994;14.660;2023-03-01T09:11:58;98657.94;;;8.43;40.47
71915;BME280;60387;49.994;14.660;2023-03-01T09:14:31;98663.44;;;8.63;38.97
71915;BME280;60387;49.994;14.660;2023-03-01T09:17:05;98643.50;;;8.79;39.05
71915;BME280;60387;49.994;14.660;2023-03-01T09:19:38;98642.72;;;9.03;38.03
71915;BME280;60387;49.994;14.660;2023-03-01T09:22:11;98638.66;;;9.26;38.30
71915;BME280;60387;49.994;14.660;2023-03-01T09:24:44;98638.97;;;9.34;38.07
71915;BME280;60387;49.994;14.660;2023-03-01T09:27:18;98634.34;;;9.40;36.36
71915;BME280;60387;49.994;14.660;2023-03-01T09:29:51;98637.88;;;9.35;36.76
71915;BME280;60387;49.994;14.660;2023-03-01T09:32:24;98633.53;;;9.29;36.60
71915;BME280;60387;49.994;14.660;2023-03-01T09:34:58;98635.97;;;9.31;37.55
71915;BME280;60387;49.994;14.660;2023-03-01T09:37:32;98622.69;;;9.49;36.41
71915;BME280;60387;49.994;14.660;2023-03-01T09:40:21;98630.81;;;9.69;36.96
71915;BME280;60387;49.994;14.660;2023-03-01T09:43:03;98625.59;;;9.87;37.83
71915;BME280;60387;49.994;14.660;2023-03-01T09:45:41;98626.97;;;10.05;37.01
71915;BME280;60387;49.994;14.660;2023-03-01T09:48:19;98623.16;;;10.11;35.60
71915;BME280;60387;49.994;14.660;2023-03-01T09:50:54;98627.47;;;10.02;35.77
71915;BME280;60387;49.994;14.660;2023-03-01T09:53:32;98622.63;;;10.04;35.57
71915;BME280;60387;49.994;14.660;2023-03-01T09:56:20;98618.84;;;9.90;36.21
71915;BME280;60387;49.994;14.660;2023-03-01T10:02:08;98638.09;;;9.68;35.40
71915;BME280;60387;49.994;14.660;2023-03-01T10:04:48;98626.75;;;9.71;35.15
71915;BME280;60387;49.994;14.660;2023-03-01T10:07:47;98625.63;;;9.77;35.23
71915;BME280;60387;49.994;14.660;2023-03-01T10:10:38;98616.66;;;10.02;36.46
71915;BME280;60387;49.994;14.660;2023-03-01T10:19:12;98600.56;;;10.40;35.12
71915;BME280;60387;49.994;14.660;2023-03-01T10:21:47;98608.31;;;10.57;34.75
71915;BME280;60387;49.994;14.660;2023-03-01T10:24:23;98608.25;;;10.67;34.79
71915;BME280;60387;49.994;14.660;2023-03-01T10:26:58;98594.88;;;10.85;35.75
71915;BME280;60387;49.994;14.660;2023-03-01T10:32:52;98603.56;;;11.21;32.96
71915;BME280;60387;49.994;14.660;2023-03-01T10:35:29;98600.50;;;11.27;35.27
71915;BME280;60387;49.994;14.660;2023-03-01T10:38:14;98598.47;;;11.43;33.76
71915;BME280;60387;49.994;14.660;2023-03-01T10:43:40;98587.16;;;11.64;34.09
71915;BME280;60387;49.994;14.660;2023-03-01T10:46:25;98594.03;;;11.85;32.75
71915;BME280;60387;49.994;14.660;2023-03-01T10:51:49;98583.84;;;11.96;33.60
71915;BME280;60387;49.994;14.660;2023-03-01T10:54:33;98580.59;;;11.94;34.18
71915;BME280;60387;49.994;14.660;2023-03-01T10:57:27;98584.56;;;11.78;33.21
71915;BME280;60387;49.994;14.660;2023-03-01T11:00:21;98574.50;;;11.55;32.97
71915;BME280;60387;49.994;14.660;2023-03-01T11:05:30;98570.53;;;11.14;33.81
71915;BME280;60387;49.994;14.660;2023-03-01T11:08:04;98563.97;;;10.86;34.38
71915;BME280;60387;49.994;14.660;2023-03-01T11:10:37;98561.84;;;10.78;34.83
71915;BME280;60387;49.994;14.660;2023-03-01T11:13:18;98575.19;;;10.70;35.01
71915;BME280;60387;49.994;14.660;2023-03-01T11:16:00;98561.66;;;10.70;35.11
71915;BME280;60387;49.994;14.660;2023-03-01T11:18:33;98541.34;;;10.67;35.12
71915;BME280;60387;49.994;14.660;2023-03-01T11:21:07;98547.53;;;10.68;35.44
71915;BME280;60387;49.994;14.660;2023-03-01T11:23:41;98545.34;;;10.75;35.55
71915;BME280;60387;49.994;14.660;2023-03-01T11:26:17;98550.16;;;10.83;34.87
71915;BME280;60387;49.994;14.660;2023-03-01T11:28:54;98528.81;;;10.71;34.51
71915;BME280;60387;49.994;14.660;2023-03-01T11:31:30;98525.94;;;10.63;35.37
71915;BME280;60387;49.994;14.660;2023-03-01T11:34:14;98539.53;;;10.53;35.11
71915;BME280;60387;49.994;14.660;2023-03-01T11:36:55;98534.31;;;10.61;35.54
71915;BME280;60387;49.994;14.660;2023-03-01T11:39:39;98531.16;;;10.88;35.55
71915;BME280;60387;49.994;14.660;2023-03-01T11:42:19;98527.78;;;11.01;34.76
71915;BME280;60387;49.994;14.660;2023-03-01T11:44:55;98526.13;;;11.05;34.96
71915;BME280;60387;49.994;14.660;2023-03-01T11:50:38;98528.28;;;11.08;34.45
71915;BME280;60387;49.994;14.660;2023-03-01T11:56:32;98520.72;;;11.05;34.93
71915;BME280;60387;49.994;14.660;2023-03-01T11:59:15;98521.13;;;11.17;35.35
71915;BME280;60387;49.994;14.660;2023-03-01T12:02:08;98513.00;;;11.17;34.77
71915;BME280;60387;49.994;14.660;2023-03-01T12:10:33;98499.81;;;11.62;34.95
71915;BME280;60387;49.994;14.660;2023-03-01T12:16:04;98491.00;;;11.94;34.67
71915;BME280;60387;49.994;14.660;2023-03-01T12:19:12;98491.13;;;11.84;33.67
71915;BME280;60387;49.994;14.660;2023-03-01T12:24:47;98486.59;;;11.79;34.50
71915;BME280;60387;49.994;14.660;2023-03-01T12:39:07;98461.53;;;11.64;33.14
71915;BME280;60387;49.994;14.660;2023-03-01T12:45:50;98470.63;;;11.49;34.81
71915;BME280;60387;49.994;14.660;2023-03-01T12:51:04;98456.78;;;11.51;34.74
71915;BME280;60387;49.994;14.660;2023-03-01T12:53:46;98460.84;;;11.48;34.52
71915;BME280;60387;49.994;14.660;2023-03-01T12:56:26;98456.31;;;11.44;34.29
71915;BME280;60387;49.994;14.660;2023-03-01T12:59:37;98463.19;;;11.36;34.31
71915;BME280;60387;49.994;14.660;2023-03-01T13:02:31;98453.97;;;11.32;34.70
71915;BME280;60387;49.994;14.660;2023-03-01T13:05:29;98461.72;;;11.20;34.42
71915;BME280;60387;49.994;14.660;2023-03-01T13:08:40;98449.50;;;11.23;33.89
71915;BME280;60387;49.994;14.660;2023-03-01T13:11:11;98451.47;;;11.17;35.11
71915;BME280;60387;49.994;14.660;2023-03-01T13:13:48;98440.16;;;11.34;34.11
71915;BME280;60387;49.994;14.660;2023-03-01T13:19:16;98439.88;;;11.35;33.89
71915;BME280;60387;49.994;14.660;2023-03-01T13:21:52;98440.97;;;11.58;34.50
71915;BME280;60387;49.994;14.660;2023-03-01T13:30:38;98433.06;;;11.61;33.71
71915;BME280;60387;49.994;14.660;2023-03-01T13:36:00;98427.38;;;11.81;33.79
71915;BME280;60387;49.994;14.660;2023-03-01T13:46:53;98442.78;;;11.86;33.38
71915;BME280;60387;49.994;14.660;2023-03-01T13:57:50;98451.25;;;11.61;34.11
71915;BME280;60387;49.994;14.660;2023-03-01T14:00:37;98438.66;;;11.70;33.69
71915;BME280;60387;49.994;14.660;2023-03-01T14:03:14;98443.63;;;11.63;34.05
71915;BME280;60387;49.994;14.660;2023-03-01T14:06:12;98428.03;;;11.50;34.06
71915;BME280;60387;49.994;14.660;2023-03-01T14:08:48;98426.66;;;11.52;33.90
71915;BME280;60387;49.994;14.660;2023-03-01T14:19:27;98427.91;;;11.36;33.94
71915;BME280;60387;49.994;14.660;2023-03-01T14:22:22;98421.28;;;11.24;33.25
71915;BME280;60387;49.994;14.660;2023-03-01T14:25:00;98417.81;;;11.18;33.41
71915;BME280;60387;49.994;14.660;2023-03-01T14:27:38;98427.38;;;11.11;33.89
71915;BME280;60387;49.994;14.660;2023-03-01T14:30:24;98425.94;;;11.18;34.08
71915;BME280;60387;49.994;14.660;2023-03-01T14:33:02;98423.28;;;11.13;33.31
71915;BME280;60387;49.994;14.660;2023-03-01T14:35:36;98426.19;;;11.22;34.01
71915;BME280;60387;49.994;14.660;2023-03-01T14:38:20;98430.16;;;11.06;34.02
71915;BME280;60387;49.994;14.660;2023-03-01T14:40:57;98422.13;;;10.96;33.80
71915;BME280;60387;49.994;14.660;2023-03-01T14:43:31;98412.03;;;11.01;33.08
71915;BME280;60387;49.994;14.660;2023-03-01T14:46:04;98422.53;;;10.79;33.85
71915;BME280;60387;49.994;14.660;2023-03-01T14:48:38;98401.09;;;10.83;33.81
71915;BME280;60387;49.994;14.660;2023-03-01T14:51:12;98403.19;;;10.91;34.33
71915;BME280;60387;49.994;14.660;2023-03-01T14:53:45;98398.53;;;10.96;33.71
71915;BME280;60387;49.994;14.660;2023-03-01T14:56:18;98412.16;;;10.91;33.86
71915;BME280;60387;49.994;14.660;2023-03-01T14:58:53;98424.88;;;10.91;34.60
71915;BME280;60387;49.994;14.660;2023-03-01T15:01:30;98415.16;;;10.85;34.61
71915;BME280;60387;49.994;14.660;2023-03-01T15:04:04;98419.78;;;10.84;34.01
71915;BME280;60387;49.994;14.660;2023-03-01T15:06:39;98413.16;;;10.67;34.63
71915;BME280;60387;49.994;14.660;2023-03-01T15:09:16;98409.09;;;10.69;34.01
71915;BME280;60387;49.994;14.660;2023-03-01T15:11:49;98412.00;;;10.49;35.01
71915;BME280;60387;49.994;14.660;2023-03-01T15:14:40;98415.47;;;10.55;34.73
71915;BME280;60387;49.994;14.660;2023-03-01T15:17:23;98413.63;;;10.45;34.74
71915;BME280;60387;49.994;14.660;2023-03-01T15:20:00;98413.44;;;10.37;35.18